sensor_id;sensor_type;location;lat;lon;timestamp;P1;durP1;ratioP1;P2;durP2;ratioP2
51981;SDS011;37998;53.416;6.730;2023-11-22T00:00:32;8.25;;;6.15;;
51981;SDS011;37998;53.416;6.730;2023-11-22T00:02:58;7.75;;;6.00;;
51981;SDS011;37998;53.416;6.730;2023-11-22T00:05:23;8.95;;;5.60;;
51981;SDS011;37998;53.416;6.730;2023-11-22T00:07:49;11.40;;;6.35;;
51981;SDS011;37998;53.416;6.730;2023-11-22T00:10:15;7.90;;;5.93;;
51981;SDS011;37998;53.416;6.730;2023-11-22T00:12:41;8.93;;;6.10;;
51981;SDS011;37998;53.416;6.730;2023-11-22T00:15:07;7.22;;;5.63;;
51981;SDS011;37998;53.416;6.730;2023-11-22T00:17:35;7.82;;;5.22;;
51981;SDS011;37998;53.416;6.730;2023-11-22T00:20:02;6.60;;;5.22;;
51981;SDS011;37998;53.416;6.730;2023-11-22T00:22:34;10.48;;;5.68;;
51981;SDS011;37998;53.416;6.730;2023-11-22T00:25:00;7.57;;;5.40;;
51981;SDS011;37998;53.416;6.730;2023-11-22T00:27:29;7.40;;;5.65;;
51981;SDS011;37998;53.416;6.730;2023-11-22T00:29:59;9.20;;;6.00;;
51981;SDS011;37998;53.416;6.730;2023-11-22T00:32:25;8.90;;;5.43;;
51981;SDS011;37998;53.416;6.730;2023-11-22T00:34:51;11.43;;;6.43;;
51981;SDS011;37998;53.416;6.730;2023-11-22T00:37:17;8.45;;;5.35;;
51981;SDS011;37998;53.416;6.730;2023-11-22T00:39:43;7.25;;;5.25;;
51981;SDS011;37998;53.416;6.730;2023-11-22T00:42:10;9.20;;;5.15;;
51981;SDS011;37998;53.416;6.730;2023-11-22T00:44:37;8.30;;;5.93;;
51981;SDS011;37998;53.416;6.730;2023-11-22T00:47:03;8.80;;;6.03;;
51981;SDS011;37998;53.416;6.730;2023-11-22T00:49:29;10.27;;;6.10;;
51981;SDS011;37998;53.416;6.730;2023-11-22T00:51:55;9.73;;;5.57;;
51981;SDS011;37998;53.416;6.730;2023-11-22T00:54:20;12.77;;;6.80;;
51981;SDS011;37998;53.416;6.730;2023-11-22T00:56:46;8.13;;;6.03;;
51981;SDS011;37998;53.416;6.730;2023-11-22T00:59:12;7.47;;;6.15;;
51981;SDS011;37998;53.416;6.730;2023-11-22T01:01:41;10.15;;;6.05;;
51981;SDS011;37998;53.416;6.730;2023-11-22T01:04:07;10.00;;;6.13;;
51981;SDS011;37998;53.416;6.730;2023-11-22T01:06:33;6.70;;;5.50;;
51981;SDS011;37998;53.416;6.730;2023-11-22T01:09:00;7.90;;;5.95;;
51981;SDS011;37998;53.416;6.730;2023-11-22T01:11:25;6.85;;;5.70;;
51981;SDS011;37998;53.416;6.730;2023-11-22T01:13:51;7.75;;;5.80;;
51981;SDS011;37998;53.416;6.730;2023-11-22T01:16:17;7.18;;;5.53;;
51981;SDS011;37998;53.416;6.730;2023-11-22T01:18:43;8.00;;;5.82;;
51981;SDS011;37998;53.416;6.730;2023-11-22T01:21:11;8.77;;;6.28;;
51981;SDS011;37998;53.416;6.730;2023-11-22T01:23:38;7.85;;;5.65;;
51981;SDS011;37998;53.416;6.730;2023-11-22T01:26:04;7.50;;;5.75;;
51981;SDS011;37998;53.416;6.730;2023-11-22T01:28:30;8.10;;;5.93;;
51981;SDS011;37998;53.416;6.730;2023-11-22T01:31:00;7.85;;;5.75;;
51981;SDS011;37998;53.416;6.730;2023-11-22T01:33:27;9.70;;;6.05;;
51981;SDS011;37998;53.416;6.730;2023-11-22T01:35:53;8.75;;;5.80;;
51981;SDS011;37998;53.416;6.730;2023-11-22T01:38:19;8.77;;;6.07;;
51981;SDS011;37998;53.416;6.730;2023-11-22T01:40:47;7.97;;;6.00;;
51981;SDS011;37998;53.416;6.730;2023-11-22T01:43:14;9.43;;;6.07;;
51981;SDS011;37998;53.416;6.730;2023-11-22T01:45:42;9.73;;;5.93;;
51981;SDS011;37998;53.416;6.730;2023-11-22T01:48:08;10.00;;;6.20;;
51981;SDS011;37998;53.416;6.730;2023-11-22T01:50:39;9.45;;;6.85;;
51981;SDS011;37998;53.416;6.730;2023-11-22T01:53:07;8.88;;;6.38;;
51981;SDS011;37998;53.416;6.730;2023-11-22T01:55:38;7.80;;;6.03;;
51981;SDS011;37998;53.416;6.730;2023-11-22T01:58:05;7.93;;;5.95;;
51981;SDS011;37998;53.416;6.730;2023-11-22T02:00:32;9.35;;;6.13;;
51981;SDS011;37998;53.416;6.730;2023-11-22T02:03:05;8.15;;;5.85;;
51981;SDS011;37998;53.416;6.730;2023-11-22T02:05:31;7.53;;;5.90;;
51981;SDS011;37998;53.416;6.730;2023-11-22T02:07:58;7.22;;;5.80;;
51981;SDS011;37998;53.416;6.730;2023-11-22T02:10:24;11.68;;;5.93;;
51981;SDS011;37998;53.416;6.730;2023-11-22T02:12:51;7.05;;;5.88;;
51981;SDS011;37998;53.416;6.730;2023-11-22T02:15:17;6.97;;;5.88;;
51981;SDS011;37998;53.416;6.730;2023-11-22T02:17:43;7.85;;;6.03;;
51981;SDS011;37998;53.416;6.730;2023-11-22T02:20:10;9.20;;;6.55;;
51981;SDS011;37998;53.416;6.730;2023-11-22T02:22:43;9.30;;;6.03;;
51981;SDS011;37998;53.416;6.730;2023-11-22T02:25:10;9.15;;;6.00;;
51981;SDS011;37998;53.416;6.730;2023-11-22T02:27:35;8.45;;;6.47;;
51981;SDS011;37998;53.416;6.730;2023-11-22T02:30:02;9.38;;;6.90;;
51981;SDS011;37998;53.416;6.730;2023-11-22T02:32:32;8.80;;;7.03;;
51981;SDS011;37998;53.416;6.730;2023-11-22T02:34:59;10.27;;;6.50;;
51981;SDS011;37998;53.416;6.730;2023-11-22T02:37:26;9.13;;;6.57;;
51981;SDS011;37998;53.416;6.730;2023-11-22T02:42:39;9.52;;;6.38;;
51981;SDS011;37998;53.416;6.730;2023-11-22T02:45:05;11.52;;;6.55;;
51981;SDS011;37998;53.416;6.730;2023-11-22T02:47:31;8.27;;;6.18;;
51981;SDS011;37998;53.416;6.730;2023-11-22T02:50:00;9.45;;;6.63;;
51981;SDS011;37998;53.416;6.730;2023-11-22T02:52:27;9.40;;;6.82;;
51981;SDS011;37998;53.416;6.730;2023-11-22T02:54:53;9.48;;;6.45;;
51981;SDS011;37998;53.416;6.730;2023-11-22T02:57:19;10.88;;;6.95;;
51981;SDS011;37998;53.416;6.730;2023-11-22T02:59:45;8.55;;;6.30;;
51981;SDS011;37998;53.416;6.730;2023-11-22T03:02:11;17.27;;;6.68;;
51981;SDS011;37998;53.416;6.730;2023-11-22T03:04:37;8.25;;;6.65;;
51981;SDS011;37998;53.416;6.730;2023-11-22T03:07:03;8.45;;;7.22;;
51981;SDS011;37998;53.416;6.730;2023-11-22T03:09:31;9.95;;;6.85;;
51981;SDS011;37998;53.416;6.730;2023-11-22T03:11:57;10.57;;;6.30;;
51981;SDS011;37998;53.416;6.730;2023-11-22T03:14:23;11.23;;;6.43;;
51981;SDS011;37998;53.416;6.730;2023-11-22T03:16:49;10.07;;;6.35;;
51981;SDS011;37998;53.416;6.730;2023-11-22T03:19:15;9.73;;;7.47;;
51981;SDS011;37998;53.416;6.730;2023-11-22T03:21:41;9.35;;;7.47;;
51981;SDS011;37998;53.416;6.730;2023-11-22T03:24:09;10.00;;;7.10;;
51981;SDS011;37998;53.416;6.730;2023-11-22T03:26:35;8.23;;;6.40;;
51981;SDS011;37998;53.416;6.730;2023-11-22T03:29:01;11.43;;;7.30;;
51981;SDS011;37998;53.416;6.730;2023-11-22T03:31:28;7.38;;;6.32;;
51981;SDS011;37998;53.416;6.730;2023-11-22T03:33:54;11.07;;;6.88;;
51981;SDS011;37998;53.416;6.730;2023-11-22T03:36:20;11.00;;;6.68;;
51981;SDS011;37998;53.416;6.730;2023-11-22T03:38:48;8.77;;;6.85;;
51981;SDS011;37998;53.416;6.730;2023-11-22T03:41:14;8.88;;;6.70;;
51981;SDS011;37998;53.416;6.730;2023-11-22T03:43:40;9.95;;;6.80;;
51981;SDS011;37998;53.416;6.730;2023-11-22T03:46:06;9.35;;;6.63;;
51981;SDS011;37998;53.416;6.730;2023-11-22T03:48:32;8.95;;;6.57;;
51981;SDS011;37998;53.416;6.730;2023-11-22T03:50:59;9.98;;;6.97;;
51981;SDS011;37998;53.416;6.730;2023-11-22T03:53:25;8.85;;;7.13;;
51981;SDS011;37998;53.416;6.730;2023-11-22T03:55:52;8.15;;;6.47;;
51981;SDS011;37998;53.416;6.730;2023-11-22T03:58:18;10.07;;;7.00;;
51981;SDS011;37998;53.416;6.730;2023-11-22T04:00:44;10.95;;;6.60;;
51981;SDS011;37998;53.416;6.730;2023-11-22T04:03:10;8.75;;;6.25;;
51981;SDS011;37998;53.416;6.730;2023-11-22T04:05:36;9.90;;;7.22;;
51981;SDS011;37998;53.416;6.730;2023-11-22T04:08:01;8.57;;;6.85;;
51981;SDS011;37998;53.416;6.730;2023-11-22T04:10:27;10.20;;;6.78;;
51981;SDS011;37998;53.416;6.730;2023-11-22T04:12:53;10.63;;;6.90;;
51981;SDS011;37998;53.416;6.730;2023-11-22T04:15:19;10.07;;;6.88;;
51981;SDS011;37998;53.416;6.730;2023-11-22T04:17:45;9.55;;;7.43;;
51981;SDS011;37998;53.416;6.730;2023-11-22T04:20:12;12.10;;;7.50;;
51981;SDS011;37998;53.416;6.730;2023-11-22T04:22:40;10.20;;;7.03;;
51981;SDS011;37998;53.416;6.730;2023-11-22T04:25:07;9.93;;;7.70;;
51981;SDS011;37998;53.416;6.730;2023-11-22T04:27:34;8.93;;;6.95;;
51981;SDS011;37998;53.416;6.730;2023-11-22T04:30:00;14.55;;;8.00;;
51981;SDS011;37998;53.416;6.730;2023-11-22T04:32:26;10.38;;;8.00;;
51981;SDS011;37998;53.416;6.730;2023-11-22T04:34:52;14.75;;;7.43;;
51981;SDS011;37998;53.416;6.730;2023-11-22T04:37:18;9.48;;;7.45;;
51981;SDS011;37998;53.416;6.730;2023-11-22T04:39:43;9.27;;;7.28;;
51981;SDS011;37998;53.416;6.730;2023-11-22T04:42:09;9.27;;;7.25;;
51981;SDS011;37998;53.416;6.730;2023-11-22T04:44:35;11.13;;;8.20;;
51981;SDS011;37998;53.416;6.730;2023-11-22T04:47:01;10.25;;;7.22;;
51981;SDS011;37998;53.416;6.730;2023-11-22T04:49:27;10.15;;;7.53;;
51981;SDS011;37998;53.416;6.730;2023-11-22T04:51:53;9.60;;;7.22;;
51981;SDS011;37998;53.416;6.730;2023-11-22T04:54:20;11.98;;;7.68;;
51981;SDS011;37998;53.416;6.730;2023-11-22T04:56:46;11.52;;;7.28;;
51981;SDS011;37998;53.416;6.730;2023-11-22T04:59:12;9.82;;;7.22;;
51981;SDS011;37998;53.416;6.730;2023-11-22T05:01:38;10.68;;;7.03;;
51981;SDS011;37998;53.416;6.730;2023-11-22T05:04:04;12.57;;;7.32;;
51981;SDS011;37998;53.416;6.730;2023-11-22T05:06:30;10.10;;;7.35;;
51981;SDS011;37998;53.416;6.730;2023-11-22T05:08:56;10.18;;;7.22;;
51981;SDS011;37998;53.416;6.730;2023-11-22T05:11:22;11.48;;;7.68;;
51981;SDS011;37998;53.416;6.730;2023-11-22T05:13:48;9.65;;;7.38;;
51981;SDS011;37998;53.416;6.730;2023-11-22T05:16:16;9.45;;;7.50;;
51981;SDS011;37998;53.416;6.730;2023-11-22T05:18:42;10.15;;;7.75;;
51981;SDS011;37998;53.416;6.730;2023-11-22T05:21:08;12.02;;;7.75;;
51981;SDS011;37998;53.416;6.730;2023-11-22T05:23:34;10.40;;;8.10;;
51981;SDS011;37998;53.416;6.730;2023-11-22T05:26:02;11.38;;;8.25;;
51981;SDS011;37998;53.416;6.730;2023-11-22T05:28:30;11.85;;;7.95;;
51981;SDS011;37998;53.416;6.730;2023-11-22T05:30:56;11.00;;;7.80;;
51981;SDS011;37998;53.416;6.730;2023-11-22T05:33:22;13.57;;;9.55;;
51981;SDS011;37998;53.416;6.730;2023-11-22T05:35:49;11.50;;;8.15;;
51981;SDS011;37998;53.416;6.730;2023-11-22T05:38:15;10.98;;;8.27;;
51981;SDS011;37998;53.416;6.730;2023-11-22T05:40:41;11.77;;;8.73;;
51981;SDS011;37998;53.416;6.730;2023-11-22T05:43:08;12.35;;;8.85;;
51981;SDS011;37998;53.416;6.730;2023-11-22T05:45:35;15.23;;;8.52;;
51981;SDS011;37998;53.416;6.730;2023-11-22T05:48:01;12.70;;;8.15;;
51981;SDS011;37998;53.416;6.730;2023-11-22T05:50:27;13.82;;;8.65;;
51981;SDS011;37998;53.416;6.730;2023-11-22T05:52:53;13.45;;;10.07;;
51981;SDS011;37998;53.416;6.730;2023-11-22T05:55:19;16.45;;;10.05;;
51981;SDS011;37998;53.416;6.730;2023-11-22T05:57:45;13.43;;;9.27;;
51981;SDS011;37998;53.416;6.730;2023-11-22T06:00:11;13.38;;;9.98;;
51981;SDS011;37998;53.416;6.730;2023-11-22T06:02:39;12.73;;;9.25;;
51981;SDS011;37998;53.416;6.730;2023-11-22T06:05:05;12.00;;;9.13;;
51981;SDS011;37998;53.416;6.730;2023-11-22T06:07:32;13.85;;;9.82;;
51981;SDS011;37998;53.416;6.730;2023-11-22T06:09:57;14.10;;;9.70;;
51981;SDS011;37998;53.416;6.730;2023-11-22T06:12:23;12.75;;;8.90;;
51981;SDS011;37998;53.416;6.730;2023-11-22T06:14:49;10.52;;;8.77;;
51981;SDS011;37998;53.416;6.730;2023-11-22T06:17:15;14.32;;;9.63;;
51981;SDS011;37998;53.416;6.730;2023-11-22T06:19:41;14.63;;;10.05;;
51981;SDS011;37998;53.416;6.730;2023-11-22T06:22:07;13.30;;;9.32;;
51981;SDS011;37998;53.416;6.730;2023-11-22T06:24:33;15.02;;;10.43;;
51981;SDS011;37998;53.416;6.730;2023-11-22T06:27:01;12.98;;;9.60;;
51981;SDS011;37998;53.416;6.730;2023-11-22T06:29:28;13.55;;;9.57;;
51981;SDS011;37998;53.416;6.730;2023-11-22T06:31:54;13.02;;;10.20;;
51981;SDS011;37998;53.416;6.730;2023-11-22T06:34:20;16.00;;;10.57;;
51981;SDS011;37998;53.416;6.730;2023-11-22T06:36:46;15.98;;;10.77;;
51981;SDS011;37998;53.416;6.730;2023-11-22T06:39:12;14.52;;;10.57;;
51981;SDS011;37998;53.416;6.730;2023-11-22T06:41:42;14.15;;;10.30;;
51981;SDS011;37998;53.416;6.730;2023-11-22T06:44:07;14.68;;;10.23;;
51981;SDS011;37998;53.416;6.730;2023-11-22T06:46:34;15.32;;;10.98;;
51981;SDS011;37998;53.416;6.730;2023-11-22T06:49:00;17.85;;;11.73;;
51981;SDS011;37998;53.416;6.730;2023-11-22T06:51:26;16.88;;;11.10;;
51981;SDS011;37998;53.416;6.730;2023-11-22T06:53:52;16.45;;;11.20;;
51981;SDS011;37998;53.416;6.730;2023-11-22T06:56:19;15.85;;;10.80;;
51981;SDS011;37998;53.416;6.730;2023-11-22T06:58:45;15.52;;;11.20;;
51981;SDS011;37998;53.416;6.730;2023-11-22T07:01:11;16.17;;;12.02;;
51981;SDS011;37998;53.416;6.730;2023-11-22T07:03:37;15.15;;;10.85;;
51981;SDS011;37998;53.416;6.730;2023-11-22T07:06:03;17.25;;;11.70;;
51981;SDS011;37998;53.416;6.730;2023-11-22T07:08:29;18.45;;;12.20;;
51981;SDS011;37998;53.416;6.730;2023-11-22T07:10:56;16.83;;;11.93;;
51981;SDS011;37998;53.416;6.730;2023-11-22T07:13:24;19.30;;;13.00;;
51981;SDS011;37998;53.416;6.730;2023-11-22T07:15:52;19.00;;;12.70;;
51981;SDS011;37998;53.416;6.730;2023-11-22T07:18:19;18.38;;;13.43;;
51981;SDS011;37998;53.416;6.730;2023-11-22T07:20:47;15.88;;;12.40;;
51981;SDS011;37998;53.416;6.730;2023-11-22T07:23:13;18.02;;;13.05;;
51981;SDS011;37998;53.416;6.730;2023-11-22T07:25:40;21.83;;;13.18;;
51981;SDS011;37998;53.416;6.730;2023-11-22T07:28:09;20.58;;;13.57;;
51981;SDS011;37998;53.416;6.730;2023-11-22T07:30:35;20.52;;;14.35;;
51981;SDS011;37998;53.416;6.730;2023-11-22T07:33:03;22.65;;;13.30;;
51981;SDS011;37998;53.416;6.730;2023-11-22T07:35:31;19.27;;;13.32;;
51981;SDS011;37998;53.416;6.730;2023-11-22T07:37:57;18.25;;;12.88;;
51981;SDS011;37998;53.416;6.730;2023-11-22T07:40:23;24.10;;;15.52;;
51981;SDS011;37998;53.416;6.730;2023-11-22T07:42:49;19.65;;;13.18;;
51981;SDS011;37998;53.416;6.730;2023-11-22T07:45:15;23.85;;;13.55;;
51981;SDS011;37998;53.416;6.730;2023-11-22T07:47:42;21.30;;;13.65;;
51981;SDS011;37998;53.416;6.730;2023-11-22T07:50:09;20.55;;;14.93;;
51981;SDS011;37998;53.416;6.730;2023-11-22T07:52:36;20.52;;;14.55;;
51981;SDS011;37998;53.416;6.730;2023-11-22T07:55:05;21.52;;;14.65;;
51981;SDS011;37998;53.416;6.730;2023-11-22T07:57:42;23.33;;;15.85;;
51981;SDS011;37998;53.416;6.730;2023-11-22T08:00:09;26.83;;;14.63;;
51981;SDS011;37998;53.416;6.730;2023-11-22T08:02:39;23.70;;;15.15;;
51981;SDS011;37998;53.416;6.730;2023-11-22T08:05:05;21.23;;;14.63;;
51981;SDS011;37998;53.416;6.730;2023-11-22T08:07:36;23.90;;;14.80;;
51981;SDS011;37998;53.416;6.730;2023-11-22T08:10:09;24.52;;;15.63;;
51981;SDS011;37998;53.416;6.730;2023-11-22T08:12:47;22.67;;;14.90;;
51981;SDS011;37998;53.416;6.730;2023-11-22T08:15:15;23.73;;;15.73;;
51981;SDS011;37998;53.416;6.730;2023-11-22T08:17:41;25.15;;;16.33;;
51981;SDS011;37998;53.416;6.730;2023-11-22T08:20:08;23.02;;;15.45;;
51981;SDS011;37998;53.416;6.730;2023-11-22T08:22:39;21.30;;;14.00;;
51981;SDS011;37998;53.416;6.730;2023-11-22T08:25:09;24.35;;;15.68;;
51981;SDS011;37998;53.416;6.730;2023-11-22T08:27:38;22.13;;;15.37;;
51981;SDS011;37998;53.416;6.730;2023-11-22T08:30:06;21.88;;;16.02;;
51981;SDS011;37998;53.416;6.730;2023-11-22T08:32:39;26.77;;;16.58;;
51981;SDS011;37998;53.416;6.730;2023-11-22T08:35:07;22.30;;;15.48;;
51981;SDS011;37998;53.416;6.730;2023-11-22T08:37:36;22.27;;;15.48;;
51981;SDS011;37998;53.416;6.730;2023-11-22T08:40:07;21.27;;;15.73;;
51981;SDS011;37998;53.416;6.730;2023-11-22T08:42:36;22.10;;;15.60;;
51981;SDS011;37998;53.416;6.730;2023-11-22T08:45:03;21.88;;;15.10;;
51981;SDS011;37998;53.416;6.730;2023-11-22T08:47:29;22.55;;;15.23;;
51981;SDS011;37998;53.416;6.730;2023-11-22T08:49:56;24.02;;;15.73;;
51981;SDS011;37998;53.416;6.730;2023-11-22T08:52:23;20.40;;;15.00;;
51981;SDS011;37998;53.416;6.730;2023-11-22T08:54:49;20.83;;;13.80;;
51981;SDS011;37998;53.416;6.730;2023-11-22T08:57:17;23.83;;;16.20;;
51981;SDS011;37998;53.416;6.730;2023-11-22T08:59:43;24.88;;;15.77;;
51981;SDS011;37998;53.416;6.730;2023-11-22T09:02:09;22.75;;;15.57;;
51981;SDS011;37998;53.416;6.730;2023-11-22T09:04:37;22.80;;;15.07;;
51981;SDS011;37998;53.416;6.730;2023-11-22T09:07:03;20.70;;;14.85;;
51981;SDS011;37998;53.416;6.730;2023-11-22T09:09:31;25.23;;;15.32;;
51981;SDS011;37998;53.416;6.730;2023-11-22T09:11:57;25.38;;;15.23;;
51981;SDS011;37998;53.416;6.730;2023-11-22T09:14:24;21.60;;;14.43;;
51981;SDS011;37998;53.416;6.730;2023-11-22T09:16:50;19.38;;;13.98;;
51981;SDS011;37998;53.416;6.730;2023-11-22T09:19:22;21.25;;;14.88;;
51981;SDS011;37998;53.416;6.730;2023-11-22T09:21:49;21.90;;;15.38;;
51981;SDS011;37998;53.416;6.730;2023-11-22T09:24:15;20.02;;;13.07;;
51981;SDS011;37998;53.416;6.730;2023-11-22T09:26:41;21.83;;;14.57;;
51981;SDS011;37998;53.416;6.730;2023-11-22T09:29:09;21.17;;;14.38;;
51981;SDS011;37998;53.416;6.730;2023-11-22T09:31:39;21.98;;;14.18;;
51981;SDS011;37998;53.416;6.730;2023-11-22T09:34:05;20.85;;;13.98;;
51981;SDS011;37998;53.416;6.730;2023-11-22T09:36:31;19.35;;;13.30;;
51981;SDS011;37998;53.416;6.730;2023-11-22T09:38:59;20.73;;;14.30;;
51981;SDS011;37998;53.416;6.730;2023-11-22T09:41:25;20.05;;;13.25;;
51981;SDS011;37998;53.416;6.730;2023-11-22T09:43:55;20.42;;;13.55;;
51981;SDS011;37998;53.416;6.730;2023-11-22T09:46:22;21.95;;;14.02;;
51981;SDS011;37998;53.416;6.730;2023-11-22T09:48:49;21.17;;;13.75;;
51981;SDS011;37998;53.416;6.730;2023-11-22T09:51:20;18.13;;;12.52;;
51981;SDS011;37998;53.416;6.730;2023-11-22T09:53:56;19.47;;;13.03;;
51981;SDS011;37998;53.416;6.730;2023-11-22T09:56:24;16.60;;;11.73;;
51981;SDS011;37998;53.416;6.730;2023-11-22T09:58:54;22.48;;;12.43;;
51981;SDS011;37998;53.416;6.730;2023-11-22T10:01:21;19.50;;;12.45;;
51981;SDS011;37998;53.416;6.730;2023-11-22T10:03:48;18.20;;;11.55;;
51981;SDS011;37998;53.416;6.730;2023-11-22T10:06:15;16.77;;;12.27;;
51981;SDS011;37998;53.416;6.730;2023-11-22T10:08:42;17.70;;;12.05;;
51981;SDS011;37998;53.416;6.730;2023-11-22T10:11:10;19.85;;;12.77;;
51981;SDS011;37998;53.416;6.730;2023-11-22T10:13:38;16.75;;;11.63;;
51981;SDS011;37998;53.416;6.730;2023-11-22T10:16:12;16.98;;;12.68;;
51981;SDS011;37998;53.416;6.730;2023-11-22T10:18:45;20.00;;;12.48;;
51981;SDS011;37998;53.416;6.730;2023-11-22T10:21:25;16.67;;;11.90;;
51981;SDS011;37998;53.416;6.730;2023-11-22T10:23:55;20.23;;;12.85;;
51981;SDS011;37998;53.416;6.730;2023-11-22T10:26:21;17.52;;;11.65;;
51981;SDS011;37998;53.416;6.730;2023-11-22T10:28:52;16.52;;;12.45;;
51981;SDS011;37998;53.416;6.730;2023-11-22T10:31:19;16.15;;;11.93;;
51981;SDS011;37998;53.416;6.730;2023-11-22T10:33:47;20.08;;;12.63;;
51981;SDS011;37998;53.416;6.730;2023-11-22T10:36:13;17.77;;;12.35;;
51981;SDS011;37998;53.416;6.730;2023-11-22T10:38:40;18.90;;;11.55;;
51981;SDS011;37998;53.416;6.730;2023-11-22T10:41:11;17.58;;;12.73;;
51981;SDS011;37998;53.416;6.730;2023-11-22T10:43:39;15.30;;;11.45;;
51981;SDS011;37998;53.416;6.730;2023-11-22T10:46:07;23.00;;;12.35;;
51981;SDS011;37998;53.416;6.730;2023-11-22T10:48:36;17.90;;;11.80;;
51981;SDS011;37998;53.416;6.730;2023-11-22T10:51:03;17.40;;;11.82;;
51981;SDS011;37998;53.416;6.730;2023-11-22T10:53:34;17.70;;;12.63;;
51981;SDS011;37998;53.416;6.730;2023-11-22T10:56:07;15.88;;;11.80;;
51981;SDS011;37998;53.416;6.730;2023-11-22T10:58:46;17.45;;;11.63;;
51981;SDS011;37998;53.416;6.730;2023-11-22T11:01:17;15.73;;;11.65;;
51981;SDS011;37998;53.416;6.730;2023-11-22T11:03:52;15.25;;;11.27;;
51981;SDS011;37998;53.416;6.730;2023-11-22T11:06:23;17.75;;;10.95;;
51981;SDS011;37998;53.416;6.730;2023-11-22T11:08:57;14.27;;;11.85;;
51981;SDS011;37998;53.416;6.730;2023-11-22T11:11:32;16.60;;;11.02;;
51981;SDS011;37998;53.416;6.730;2023-11-22T11:14:00;14.30;;;10.93;;
51981;SDS011;37998;53.416;6.730;2023-11-22T11:16:29;16.38;;;10.40;;
51981;SDS011;37998;53.416;6.730;2023-11-22T11:19:04;13.82;;;9.77;;
51981;SDS011;37998;53.416;6.730;2023-11-22T11:21:32;11.73;;;9.15;;
51981;SDS011;37998;53.416;6.730;2023-11-22T11:23:58;13.23;;;8.35;;
51981;SDS011;37998;53.416;6.730;2023-11-22T11:26:28;11.25;;;8.93;;
51981;SDS011;37998;53.416;6.730;2023-11-22T11:28:57;11.23;;;8.43;;
51981;SDS011;37998;53.416;6.730;2023-11-22T11:31:23;12.68;;;8.75;;
51981;SDS011;37998;53.416;6.730;2023-11-22T11:36:29;13.85;;;8.20;;
51981;SDS011;37998;53.416;6.730;2023-11-22T11:38:58;12.00;;;8.02;;
51981;SDS011;37998;53.416;6.730;2023-11-22T11:41:30;9.82;;;7.47;;
51981;SDS011;37998;53.416;6.730;2023-11-22T11:43:58;8.38;;;7.47;;
51981;SDS011;37998;53.416;6.730;2023-11-22T11:46:26;9.73;;;7.97;;
51981;SDS011;37998;53.416;6.730;2023-11-22T11:48:54;10.40;;;8.27;;
51981;SDS011;37998;53.416;6.730;2023-11-22T11:51:24;10.05;;;7.97;;
51981;SDS011;37998;53.416;6.730;2023-11-22T11:53:52;11.50;;;8.30;;
51981;SDS011;37998;53.416;6.730;2023-11-22T11:56:19;11.20;;;8.68;;
51981;SDS011;37998;53.416;6.730;2023-11-22T11:58:46;11.50;;;7.70;;
51981;SDS011;37998;53.416;6.730;2023-11-22T12:01:18;10.50;;;7.28;;
51981;SDS011;37998;53.416;6.730;2023-11-22T12:03:47;10.60;;;7.17;;
51981;SDS011;37998;53.416;6.730;2023-11-22T12:06:16;9.23;;;7.18;;
51981;SDS011;37998;53.416;6.730;2023-11-22T12:08:43;7.82;;;6.63;;
51981;SDS011;37998;53.416;6.730;2023-11-22T12:11:10;7.80;;;6.07;;
51981;SDS011;37998;53.416;6.730;2023-11-22T12:13:37;10.73;;;6.00;;
51981;SDS011;37998;53.416;6.730;2023-11-22T12:16:15;10.43;;;6.18;;
51981;SDS011;37998;53.416;6.730;2023-11-22T12:18:44;8.65;;;6.07;;
51981;SDS011;37998;53.416;6.730;2023-11-22T12:21:13;7.25;;;5.68;;
51981;SDS011;37998;53.416;6.730;2023-11-22T12:23:41;8.90;;;5.88;;
51981;SDS011;37998;53.416;6.730;2023-11-22T12:26:19;8.02;;;5.72;;
51981;SDS011;37998;53.416;6.730;2023-11-22T12:28:46;8.48;;;6.00;;
51981;SDS011;37998;53.416;6.730;2023-11-22T12:31:13;9.63;;;5.53;;
51981;SDS011;37998;53.416;6.730;2023-11-22T12:33:40;8.68;;;6.07;;
51981;SDS011;37998;53.416;6.730;2023-11-22T12:36:07;7.47;;;6.00;;
51981;SDS011;37998;53.416;6.730;2023-11-22T12:38:35;8.25;;;6.55;;
51981;SDS011;37998;53.416;6.730;2023-11-22T12:41:02;7.90;;;6.30;;
51981;SDS011;37998;53.416;6.730;2023-11-22T12:43:29;8.93;;;6.25;;
51981;SDS011;37998;53.416;6.730;2023-11-22T12:45:59;8.50;;;6.10;;
51981;SDS011;37998;53.416;6.730;2023-11-22T12:48:26;7.90;;;6.55;;
51981;SDS011;37998;53.416;6.730;2023-11-22T12:50:55;8.77;;;6.43;;
51981;SDS011;37998;53.416;6.730;2023-11-22T12:53:24;8.07;;;6.30;;
51981;SDS011;37998;53.416;6.730;2023-11-22T12:55:53;6.93;;;5.93;;
51981;SDS011;37998;53.416;6.730;2023-11-22T12:58:20;8.57;;;6.45;;
51981;SDS011;37998;53.416;6.730;2023-11-22T13:00:49;8.18;;;6.80;;
51981;SDS011;37998;53.416;6.730;2023-11-22T13:03:16;9.50;;;7.00;;
51981;SDS011;37998;53.416;6.730;2023-11-22T13:05:43;7.90;;;6.30;;
51981;SDS011;37998;53.416;6.730;2023-11-22T13:08:11;8.43;;;6.38;;
51981;SDS011;37998;53.416;6.730;2023-11-22T13:10:46;8.15;;;6.65;;
51981;SDS011;37998;53.416;6.730;2023-11-22T13:13:16;9.20;;;7.07;;
51981;SDS011;37998;53.416;6.730;2023-11-22T13:15:42;8.30;;;6.93;;
51981;SDS011;37998;53.416;6.730;2023-11-22T13:18:08;11.90;;;7.03;;
51981;SDS011;37998;53.416;6.730;2023-11-22T13:20:34;9.05;;;7.32;;
51981;SDS011;37998;53.416;6.730;2023-11-22T13:23:00;9.68;;;7.00;;
51981;SDS011;37998;53.416;6.730;2023-11-22T13:25:28;9.82;;;7.30;;
51981;SDS011;37998;53.416;6.730;2023-11-22T13:27:54;9.13;;;8.10;;
51981;SDS011;37998;53.416;6.730;2023-11-22T13:30:22;11.32;;;8.10;;
51981;SDS011;37998;53.416;6.730;2023-11-22T13:32:49;10.35;;;7.80;;
51981;SDS011;37998;53.416;6.730;2023-11-22T13:35:15;10.77;;;7.72;;
51981;SDS011;37998;53.416;6.730;2023-11-22T13:37:43;9.70;;;8.18;;
51981;SDS011;37998;53.416;6.730;2023-11-22T13:40:13;9.77;;;8.10;;
51981;SDS011;37998;53.416;6.730;2023-11-22T13:42:44;11.95;;;7.60;;
51981;SDS011;37998;53.416;6.730;2023-11-22T13:45:11;13.32;;;7.93;;
51981;SDS011;37998;53.416;6.730;2023-11-22T13:47:42;10.32;;;8.02;;
51981;SDS011;37998;53.416;6.730;2023-11-22T13:50:16;14.20;;;8.93;;
51981;SDS011;37998;53.416;6.730;2023-11-22T13:52:52;10.07;;;7.93;;
51981;SDS011;37998;53.416;6.730;2023-11-22T13:55:19;11.85;;;8.57;;
51981;SDS011;37998;53.416;6.730;2023-11-22T13:57:49;11.73;;;7.88;;
51981;SDS011;37998;53.416;6.730;2023-11-22T14:00:16;10.98;;;7.78;;
51981;SDS011;37998;53.416;6.730;2023-11-22T14:02:48;10.82;;;8.27;;
51981;SDS011;37998;53.416;6.730;2023-11-22T14:05:17;9.98;;;7.70;;
51981;SDS011;37998;53.416;6.730;2023-11-22T14:07:43;10.85;;;8.15;;
51981;SDS011;37998;53.416;6.730;2023-11-22T14:10:09;11.35;;;8.35;;
51981;SDS011;37998;53.416;6.730;2023-11-22T14:12:36;10.15;;;8.23;;
51981;SDS011;37998;53.416;6.730;2023-11-22T14:15:03;12.00;;;8.18;;
51981;SDS011;37998;53.416;6.730;2023-11-22T14:17:30;10.10;;;7.75;;
51981;SDS011;37998;53.416;6.730;2023-11-22T14:19:56;11.45;;;7.72;;
51981;SDS011;37998;53.416;6.730;2023-11-22T14:22:22;10.15;;;7.65;;
51981;SDS011;37998;53.416;6.730;2023-11-22T14:24:49;11.48;;;7.50;;
51981;SDS011;37998;53.416;6.730;2023-11-22T14:27:18;10.18;;;7.78;;
51981;SDS011;37998;53.416;6.730;2023-11-22T14:29:45;12.32;;;8.07;;
51981;SDS011;37998;53.416;6.730;2023-11-22T14:32:14;9.43;;;7.28;;
51981;SDS011;37998;53.416;6.730;2023-11-22T14:34:40;10.07;;;7.80;;
51981;SDS011;37998;53.416;6.730;2023-11-22T14:37:12;12.68;;;8.15;;
51981;SDS011;37998;53.416;6.730;2023-11-22T14:39:38;10.82;;;7.43;;
51981;SDS011;37998;53.416;6.730;2023-11-22T14:42:05;12.32;;;8.55;;